To NAV CANADA Home Page Login to a new session Search on AWWS site Feedback and Comments Disclaimer Vers la page française équivalente Tips FAQ What's new on the site To the Forecasts and Observations / NOTAM section To "File a Flight Plan" website Publications and other links Update of the User's profile FIC Telephone Numbers My Weather Data Folder Route Weather Data Regional Weather Data Local Weather Data To the Forecasts and Observations / NOTAM section
Request Generated 08/28/2016 at 06:50:26 UTC . Weather information available at that time is displayed.

METAR/TAF

MONTREAL/PIERRE-ELLIOTT-TRUDEAU INTL/QC    

METAR CYUL 280600Z 17006KT 130V270 15SM FEW120 OVC170 21/15 A3020 RMK
AC1AC7 SLP227 DENSITY ALT 500FT=
METAR CYUL 280500Z VRB07KT 15SM FEW120 BKN160 21/14 A3021 RMK AC2AC5
SLP231 DENSITY ALT 500FT=
METAR CYUL 280400Z VRB03KT 15SM FEW140 SCT180 BKN240 21/15 A3022 RMK
AC2AC2CI2 SLP234 DENSITY ALT 500FT=

TAF CYUL 280538Z 2806/2906 VRB03KT P6SM SCT070 BKN150
FM281000 08005KT P6SM SCT070 BKN140 TEMPO 2812/2814 P6SM -SHRA
FM281400 08005KT P6SM -SHRA BKN060 OVC100
FM281700 16005KT P6SM OVC030
FM282300 24010KT P6SM -SHRA BKN030
FM290500 29008KT P6SM FEW030 SCT070
RMK NXT FCST BY 280900Z=
Your time UTC time
Weather data provided by Environment Canada and NAV CANADA